Time;durP1;ratioP1;P1;durP2;ratioP2;P2;SDS_P1;SDS_P2;PMS_P1;PMS_P2;Temp;Humidity;BMP_temperature;BMP_pressure;BME280_temperature;BME280_humidity;BME280_pressure;Samples;Min_cycle;Max_cycle;Signal;HPM_P1;HPM_P2
2022/09/03 00:00:08;;;;;;;4.90;3.20;;;;;;;;;;5046947;28;20079;-47
2022/09/03 00:02:49;;;;;;;3.85;3.55;;;;;;;;;;5054407;28;20153;-47
2022/09/03 00:05:24;;;;;;;4.10;3.03;;;;;;;;;;5046625;28;20037;-48
2022/09/03 00:08:02;;;;;;;6.15;3.30;;;;;;;;;;5049313;28;20040;-48
2022/09/03 00:11:02;;;;;;;9.45;3.47;;;;;;;;;;5052675;28;20094;-49
2022/09/03 00:13:38;;;;;;;5.35;3.00;;;;;;;;;;5045910;28;20068;-49
2022/09/03 00:16:09;;;;;;;4.00;3.25;;;;;;;;;;5052907;28;20032;-50
2022/09/03 00:18:40;;;;;;;10.98;3.40;;;;;;;;;;5048601;28;20024;-48
2022/09/03 00:21:10;;;;;;;9.13;3.42;;;;;;;;;;5055211;28;20025;-46
2022/09/03 00:23:40;;;;;;;6.03;3.58;;;;;;;;;;5051324;28;20100;-50
2022/09/03 00:26:11;;;;;;;7.70;3.60;;;;;;;;;;5052485;28;20032;-45
2022/09/03 00:28:54;;;;;;;4.15;3.22;;;;;;;;;;5049827;28;20021;-53
2022/09/03 00:31:27;;;;;;;7.50;3.13;;;;;;;;;;5043740;28;20040;-52
2022/09/03 00:34:01;;;;;;;5.97;3.85;;;;;;;;;;5051813;28;20025;-49
2022/09/03 00:36:46;;;;;;;4.75;3.10;;;;;;;;;;5047112;28;20045;-51
2022/09/03 00:39:15;;;;;;;6.65;3.15;;;;;;;;;;5055514;28;20028;-49
2022/09/03 00:41:51;;;;;;;6.95;3.00;;;;;;;;;;5050252;28;20032;-52
2022/09/03 00:44:20;;;;;;;3.78;3.08;;;;;;;;;;5050750;28;20028;-53
2022/09/03 00:46:51;;;;;;;6.13;3.10;;;;;;;;;;5052747;28;20413;-53
2022/09/03 00:49:59;;;;;;;5.82;3.42;;;;;;;;;;5054355;28;20425;-46
2022/09/03 00:52:59;;;;;;;3.40;3.05;;;;;;;;;;5011464;28;20087;-49
2022/09/03 00:55:42;;;;;;;9.40;3.83;;;;;;;;;;4940252;28;20035;-47
2022/09/03 00:58:19;;;;;;;5.90;3.15;;;;;;;;;;4944318;28;20047;-45
2022/09/03 01:00:45;;;;;;;4.10;3.30;;;;;;;;;;4945820;28;20462;-47
2022/09/03 01:03:18;;;;;;;7.32;2.83;;;;;;;;;;4945974;28;20047;-48
2022/09/03 01:06:14;;;;;;;5.30;2.90;;;;;;;;;;4941108;28;20051;-46
2022/09/03 01:08:49;;;;;;;3.88;2.85;;;;;;;;;;4941682;28;20118;-47
2022/09/03 01:11:25;;;;;;;5.13;3.10;;;;;;;;;;4944574;28;20503;-49
2022/09/03 01:14:25;;;;;;;8.98;3.53;;;;;;;;;;4945985;28;20042;-46
2022/09/03 01:17:05;;;;;;;3.80;3.00;;;;;;;;;;4945009;28;23240;-47
2022/09/03 01:19:56;;;;;;;4.85;3.40;;;;;;;;;;4948321;28;20035;-49
2022/09/03 01:23:07;;;;;;;3.55;2.67;;;;;;;;;;4942591;28;20122;-51
2022/09/03 01:25:51;;;;;;;5.00;3.22;;;;;;;;;;4945258;28;20043;-48
2022/09/03 01:28:37;;;;;;;7.13;3.42;;;;;;;;;;4950952;28;20046;-48
2022/09/03 01:31:36;;;;;;;4.80;3.25;;;;;;;;;;5000805;28;20040;-49
2022/09/03 01:34:11;;;;;;;3.30;3.00;;;;;;;;;;5052870;28;20035;-47
2022/09/03 01:36:54;;;;;;;5.68;3.20;;;;;;;;;;5051791;28;20036;-47
2022/09/03 01:39:54;;;;;;;5.22;3.17;;;;;;;;;;5049099;28;20430;-49
2022/09/03 01:42:40;;;;;;;4.13;3.20;;;;;;;;;;5053070;28;20194;-47
2022/09/03 01:45:34;;;;;;;3.63;3.25;;;;;;;;;;5051201;28;20030;-46
2022/09/03 01:48:06;;;;;;;8.02;3.60;;;;;;;;;;5051526;28;20591;-47
2022/09/03 01:50:48;;;;;;;3.75;3.28;;;;;;;;;;5047145;28;20025;-50
2022/09/03 01:53:51;;;;;;;11.70;3.63;;;;;;;;;;5055581;28;20064;-46
2022/09/03 01:56:56;;;;;;;5.43;3.25;;;;;;;;;;5057790;28;20052;-48
2022/09/03 01:59:32;;;;;;;3.80;3.50;;;;;;;;;;5054158;28;20032;-48
2022/09/03 02:02:21;;;;;;;5.32;3.50;;;;;;;;;;5051765;28;20033;-49
2022/09/03 02:05:08;;;;;;;4.78;3.20;;;;;;;;;;5051834;28;20040;-49
2022/09/03 02:07:37;;;;;;;7.38;3.63;;;;;;;;;;5058076;28;20032;-49
2022/09/03 02:10:07;;;;;;;7.63;3.58;;;;;;;;;;5058517;28;20024;-46
2022/09/03 02:12:36;;;;;;;4.40;3.58;;;;;;;;;;5057405;28;20024;-51
2022/09/03 02:15:15;;;;;;;5.65;4.07;;;;;;;;;;5054272;28;20055;-51
2022/09/03 02:17:42;;;;;;;8.50;3.53;;;;;;;;;;5049096;28;20497;-46
2022/09/03 02:20:14;;;;;;;6.82;3.72;;;;;;;;;;5045338;28;20033;-50
2022/09/03 02:22:41;;;;;;;7.93;3.83;;;;;;;;;;5052680;28;20052;-50
2022/09/03 02:25:09;;;;;;;3.45;3.15;;;;;;;;;;5055620;28;20040;-45
2022/09/03 02:27:37;;;;;;;5.80;3.40;;;;;;;;;;5050293;28;20029;-49
2022/09/03 02:30:03;;;;;;;6.28;3.97;;;;;;;;;;5045155;28;20053;-52
2022/09/03 02:32:29;;;;;;;8.25;3.95;;;;;;;;;;5048519;28;20025;-48
2022/09/03 02:34:55;;;;;;;4.25;3.42;;;;;;;;;;5050709;28;20021;-48
2022/09/03 02:37:21;;;;;;;4.82;3.47;;;;;;;;;;5055531;28;20037;-50
2022/09/03 02:39:47;;;;;;;3.78;3.38;;;;;;;;;;5058088;28;20027;-50
2022/09/03 02:42:14;;;;;;;6.90;3.58;;;;;;;;;;5050939;28;20021;-49
2022/09/03 02:44:54;;;;;;;7.03;3.50;;;;;;;;;;5054374;28;20052;-50
2022/09/03 02:47:20;;;;;;;5.57;3.40;;;;;;;;;;5052330;28;20501;-48
2022/09/03 02:49:47;;;;;;;6.63;3.85;;;;;;;;;;5053222;28;20025;-48
2022/09/03 02:52:14;;;;;;;8.30;3.58;;;;;;;;;;5048122;28;20116;-52
2022/09/03 02:54:39;;;;;;;5.00;3.20;;;;;;;;;;5055183;28;20481;-46
2022/09/03 02:57:12;;;;;;;4.50;3.30;;;;;;;;;;5035037;28;20059;-48
2022/09/03 02:59:38;;;;;;;3.85;3.25;;;;;;;;;;5059000;28;20020;-49
2022/09/03 03:02:04;;;;;;;3.67;3.08;;;;;;;;;;5054250;28;20525;-49
2022/09/03 03:04:31;;;;;;;6.60;3.50;;;;;;;;;;5050983;28;20132;-51
2022/09/03 03:06:57;;;;;;;8.95;3.00;;;;;;;;;;5051599;28;20059;-52
2022/09/03 03:09:22;;;;;;;4.07;3.50;;;;;;;;;;5054695;28;20056;-48
2022/09/03 03:11:49;;;;;;;9.90;3.83;;;;;;;;;;5053901;28;20065;-47
2022/09/03 03:14:15;;;;;;;7.18;3.50;;;;;;;;;;5050622;28;20035;-50
2022/09/03 03:16:41;;;;;;;6.28;3.17;;;;;;;;;;5057241;28;20021;-52
2022/09/03 03:19:06;;;;;;;8.35;3.30;;;;;;;;;;5042350;28;20118;-46
2022/09/03 03:21:32;;;;;;;3.60;3.08;;;;;;;;;;5050371;28;20484;-47
2022/09/03 03:23:57;;;;;;;12.15;3.33;;;;;;;;;;5052064;28;20035;-47
2022/09/03 03:26:23;;;;;;;3.85;2.80;;;;;;;;;;5053781;28;20108;-49
2022/09/03 03:28:55;;;;;;;4.07;2.70;;;;;;;;;;5051039;28;20037;-50
2022/09/03 03:31:21;;;;;;;4.07;2.85;;;;;;;;;;5044431;28;20025;-47
2022/09/03 03:33:55;;;;;;;4.47;2.78;;;;;;;;;;5046229;28;20047;-50
2022/09/03 03:36:23;;;;;;;5.72;3.65;;;;;;;;;;5054724;28;20027;-49
2022/09/03 03:38:53;;;;;;;3.67;2.97;;;;;;;;;;5053634;28;20108;-46
2022/09/03 03:41:21;;;;;;;4.07;2.55;;;;;;;;;;5050284;28;20037;-51
2022/09/03 03:43:51;;;;;;;6.70;3.20;;;;;;;;;;5043802;28;20041;-46
2022/09/03 03:46:16;;;;;;;6.72;3.03;;;;;;;;;;5055068;28;20025;-47
2022/09/03 03:48:42;;;;;;;3.83;2.70;;;;;;;;;;5055063;28;20090;-49
2022/09/03 03:51:09;;;;;;;6.63;3.35;;;;;;;;;;5053441;28;20104;-47
2022/09/03 03:53:36;;;;;;;3.88;3.10;;;;;;;;;;5048816;28;20024;-47
2022/09/03 03:56:04;;;;;;;7.18;3.20;;;;;;;;;;5056300;28;20079;-52
2022/09/03 03:58:31;;;;;;;4.65;3.42;;;;;;;;;;5045270;28;20074;-48
2022/09/03 04:01:23;;;;;;;5.40;3.40;;;;;;;;;;5052568;28;20044;-47
2022/09/03 04:03:49;;;;;;;3.97;3.28;;;;;;;;;;5047882;28;20065;-45
2022/09/03 04:06:18;;;;;;;3.33;3.00;;;;;;;;;;5050344;28;20458;-50
2022/09/03 04:08:45;;;;;;;5.18;3.55;;;;;;;;;;5049597;28;20043;-46
2022/09/03 04:11:14;;;;;;;6.32;3.33;;;;;;;;;;5055214;28;20021;-47
2022/09/03 04:13:41;;;;;;;7.47;3.63;;;;;;;;;;5049867;28;20033;-49
2022/09/03 04:16:12;;;;;;;4.15;3.20;;;;;;;;;;5047717;28;20852;-48
2022/09/03 04:18:39;;;;;;;5.27;3.23;;;;;;;;;;5046255;28;20021;-51
2022/09/03 04:21:13;;;;;;;7.43;3.78;;;;;;;;;;5050029;28;20274;-49
2022/09/03 04:23:41;;;;;;;7.97;3.60;;;;;;;;;;5049994;28;20274;-47
2022/09/03 04:26:08;;;;;;;5.30;3.10;;;;;;;;;;5049640;28;20116;-52
2022/09/03 04:28:34;;;;;;;6.93;3.00;;;;;;;;;;5055074;28;20057;-48
2022/09/03 04:31:05;;;;;;;7.72;3.25;;;;;;;;;;5044350;28;20516;-48
2022/09/03 04:33:31;;;;;;;4.40;2.88;;;;;;;;;;5050838;28;20021;-50
2022/09/03 04:36:15;;;;;;;3.65;3.20;;;;;;;;;;5049827;28;20020;-45
2022/09/03 04:38:43;;;;;;;6.07;3.22;;;;;;;;;;5062255;28;20021;-50
2022/09/03 04:41:17;;;;;;;5.78;3.10;;;;;;;;;;5052955;28;20067;-45
2022/09/03 04:43:43;;;;;;;6.18;3.08;;;;;;;;;;5055611;28;20038;-46
2022/09/03 04:46:11;;;;;;;6.93;2.92;;;;;;;;;;5060727;28;20466;-49
2022/09/03 04:48:37;;;;;;;5.05;3.97;;;;;;;;;;5040563;28;20083;-48
2022/09/03 04:51:12;;;;;;;7.07;3.20;;;;;;;;;;5064402;28;20488;-50
2022/09/03 04:53:43;;;;;;;6.07;3.30;;;;;;;;;;5064778;28;20396;-52
2022/09/03 04:56:20;;;;;;;4.80;2.80;;;;;;;;;;5040991;28;20107;-49
2022/09/03 04:58:47;;;;;;;9.38;3.47;;;;;;;;;;5055508;28;20041;-46
2022/09/03 05:01:18;;;;;;;6.82;3.13;;;;;;;;;;5057167;28;20031;-50
2022/09/03 05:03:45;;;;;;;5.07;2.90;;;;;;;;;;5047862;28;20032;-52
2022/09/03 05:06:11;;;;;;;6.47;3.33;;;;;;;;;;5058565;28;20032;-47
2022/09/03 05:08:36;;;;;;;6.50;3.03;;;;;;;;;;5049901;28;20037;-50
2022/09/03 05:11:04;;;;;;;10.05;3.60;;;;;;;;;;5051683;28;20700;-52
2022/09/03 05:13:30;;;;;;;5.00;3.03;;;;;;;;;;5055032;28;20088;-48
2022/09/03 05:16:03;;;;;;;4.32;2.67;;;;;;;;;;5063552;28;20037;-47
2022/09/03 05:18:29;;;;;;;3.67;3.30;;;;;;;;;;5054697;28;20024;-46
2022/09/03 05:21:03;;;;;;;4.00;3.30;;;;;;;;;;5059790;28;20044;-51
2022/09/03 05:23:30;;;;;;;4.30;3.20;;;;;;;;;;5052892;28;20036;-46
2022/09/03 05:25:57;;;;;;;6.57;3.17;;;;;;;;;;5061193;28;20041;-47
2022/09/03 05:28:26;;;;;;;4.60;2.83;;;;;;;;;;5054836;28;20412;-49
2022/09/03 05:31:05;;;;;;;3.33;3.00;;;;;;;;;;5047240;28;20029;-51
2022/09/03 05:33:40;;;;;;;6.03;3.20;;;;;;;;;;5054623;28;20082;-51
2022/09/03 05:36:08;;;;;;;4.60;3.15;;;;;;;;;;5053993;28;20215;-46
2022/09/03 05:38:34;;;;;;;5.03;3.03;;;;;;;;;;5059123;28;20028;-51
2022/09/03 05:41:05;;;;;;;5.00;3.03;;;;;;;;;;5059549;28;20051;-50
2022/09/03 05:43:32;;;;;;;3.80;3.10;;;;;;;;;;5064333;28;20378;-49
2022/09/03 05:45:59;;;;;;;4.78;3.08;;;;;;;;;;5052840;28;20021;-51
2022/09/03 05:48:26;;;;;;;5.30;3.45;;;;;;;;;;5053474;28;20104;-46
2022/09/03 05:50:59;;;;;;;7.82;3.00;;;;;;;;;;5060728;28;20025;-52
2022/09/03 05:53:27;;;;;;;3.95;3.13;;;;;;;;;;5051311;28;20402;-48
2022/09/03 05:55:57;;;;;;;3.15;2.80;;;;;;;;;;5042420;28;20036;-49
2022/09/03 05:58:24;;;;;;;6.80;2.67;;;;;;;;;;5057641;28;20554;-50
2022/09/03 06:00:50;;;;;;;4.13;2.63;;;;;;;;;;5058462;28;20477;-48
2022/09/03 06:03:16;;;;;;;3.92;2.80;;;;;;;;;;5059253;28;20497;-48
2022/09/03 06:05:53;;;;;;;5.10;2.80;;;;;;;;;;5057251;28;20040;-48
2022/09/03 06:08:19;;;;;;;3.38;2.53;;;;;;;;;;5063844;28;20111;-45
2022/09/03 06:10:44;;;;;;;4.57;2.80;;;;;;;;;;5060967;28;20439;-45
2022/09/03 06:13:10;;;;;;;4.30;2.83;;;;;;;;;;5047588;28;20037;-45
2022/09/03 06:15:36;;;;;;;13.25;2.92;;;;;;;;;;5057033;28;20040;-46
2022/09/03 06:18:02;;;;;;;3.72;2.40;;;;;;;;;;5048636;28;20033;-45
2022/09/03 06:20:28;;;;;;;5.80;2.60;;;;;;;;;;5054066;28;20033;-45
2022/09/03 06:22:54;;;;;;;2.90;2.60;;;;;;;;;;5053777;28;20119;-45
2022/09/03 06:25:20;;;;;;;5.00;2.42;;;;;;;;;;5053038;28;20037;-48
2022/09/03 06:27:46;;;;;;;4.28;2.60;;;;;;;;;;5051002;28;20033;-45
2022/09/03 06:30:12;;;;;;;3.05;2.42;;;;;;;;;;5055359;28;20055;-48
2022/09/03 06:32:49;;;;;;;7.13;2.95;;;;;;;;;;5058819;28;20025;-45
2022/09/03 06:35:15;;;;;;;5.28;2.35;;;;;;;;;;5055689;28;20508;-48
2022/09/03 06:37:41;;;;;;;6.28;2.30;;;;;;;;;;5055684;28;20053;-46
2022/09/03 06:40:12;;;;;;;7.35;2.70;;;;;;;;;;5057126;28;20020;-45
2022/09/03 06:42:41;;;;;;;7.25;2.35;;;;;;;;;;5053509;28;20078;-47
2022/09/03 06:45:10;;;;;;;5.55;2.78;;;;;;;;;;5054890;28;20031;-45
2022/09/03 06:47:35;;;;;;;3.80;2.55;;;;;;;;;;5057918;28;20052;-45
2022/09/03 06:50:02;;;;;;;6.25;2.58;;;;;;;;;;5057694;28;20509;-46
2022/09/03 06:52:28;;;;;;;2.85;2.40;;;;;;;;;;5055103;28;20052;-46
2022/09/03 06:54:54;;;;;;;3.20;2.60;;;;;;;;;;5050600;28;20032;-45
2022/09/03 06:57:19;;;;;;;5.38;2.67;;;;;;;;;;5049634;28;20040;-48
2022/09/03 06:59:45;;;;;;;3.85;2.60;;;;;;;;;;5056832;28;20020;-48
2022/09/03 07:02:11;;;;;;;3.60;2.58;;;;;;;;;;5057007;28;20043;-47
2022/09/03 07:04:36;;;;;;;4.18;2.40;;;;;;;;;;5054686;28;20086;-47
2022/09/03 07:07:02;;;;;;;4.30;2.60;;;;;;;;;;5049634;28;20493;-45
2022/09/03 07:09:28;;;;;;;8.10;3.75;;;;;;;;;;5061015;28;20086;-45
2022/09/03 07:11:54;;;;;;;9.48;2.63;;;;;;;;;;5061397;28;20037;-48
2022/09/03 07:14:20;;;;;;;4.30;2.38;;;;;;;;;;5057145;28;20017;-48
2022/09/03 07:16:48;;;;;;;4.22;2.45;;;;;;;;;;5055001;28;20028;-46
2022/09/03 07:19:14;;;;;;;2.60;2.40;;;;;;;;;;5040494;28;21185;-45
2022/09/03 07:21:41;;;;;;;4.60;2.60;;;;;;;;;;5057476;28;20523;-46
2022/09/03 07:24:07;;;;;;;4.53;2.67;;;;;;;;;;5055440;28;20064;-45
2022/09/03 07:26:36;;;;;;;7.30;3.05;;;;;;;;;;5061273;28;20033;-48
2022/09/03 07:29:03;;;;;;;3.13;2.70;;;;;;;;;;5056147;28;20020;-46
2022/09/03 07:31:34;;;;;;;4.75;2.13;;;;;;;;;;5054784;28;20116;-46
2022/09/03 07:34:05;;;;;;;5.43;2.50;;;;;;;;;;5054778;28;20020;-46
2022/09/03 07:36:37;;;;;;;3.20;2.45;;;;;;;;;;5041907;28;20508;-45
2022/09/03 07:39:04;;;;;;;5.47;2.45;;;;;;;;;;5060310;28;20051;-46
2022/09/03 07:41:31;;;;;;;4.05;2.80;;;;;;;;;;5056542;28;20081;-50
2022/09/03 07:43:58;;;;;;;4.55;2.50;;;;;;;;;;5056892;28;20062;-45
2022/09/03 07:46:26;;;;;;;4.28;2.58;;;;;;;;;;5059133;28;20051;-46
2022/09/03 07:48:53;;;;;;;6.78;2.70;;;;;;;;;;5060782;28;20055;-46
2022/09/03 07:51:25;;;;;;;5.72;3.00;;;;;;;;;;5051565;28;20386;-47
2022/09/03 07:53:56;;;;;;;5.38;2.72;;;;;;;;;;5054117;28;20017;-46
2022/09/03 07:56:21;;;;;;;3.58;2.47;;;;;;;;;;5055066;28;20075;-46
2022/09/03 07:58:47;;;;;;;4.47;2.63;;;;;;;;;;5054812;28;20053;-45
2022/09/03 08:01:15;;;;;;;5.15;2.47;;;;;;;;;;5060272;28;20051;-47
2022/09/03 08:03:46;;;;;;;3.85;2.45;;;;;;;;;;5068321;28;20029;-45
2022/09/03 08:06:13;;;;;;;6.30;2.60;;;;;;;;;;5051453;28;20035;-46
2022/09/03 08:08:39;;;;;;;7.07;2.75;;;;;;;;;;5051282;28;20031;-45
2022/09/03 08:11:10;;;;;;;4.07;2.67;;;;;;;;;;5059588;28;20033;-48
2022/09/03 08:13:40;;;;;;;8.75;2.83;;;;;;;;;;5044016;28;20028;-48
2022/09/03 08:16:08;;;;;;;7.93;2.65;;;;;;;;;;5056651;28;20433;-47
2022/09/03 08:18:36;;;;;;;9.38;2.83;;;;;;;;;;5059962;28;20107;-46
2022/09/03 08:21:12;;;;;;;7.75;2.40;;;;;;;;;;5064325;28;20029;-49
2022/09/03 08:23:43;;;;;;;8.63;2.50;;;;;;;;;;5056359;28;20113;-47
2022/09/03 08:26:09;;;;;;;4.75;2.58;;;;;;;;;;5059853;28;20065;-46
2022/09/03 08:28:36;;;;;;;6.30;2.33;;;;;;;;;;5060851;28;20025;-47
2022/09/03 08:31:10;;;;;;;8.60;2.25;;;;;;;;;;5049226;28;20085;-47
2022/09/03 08:33:37;;;;;;;4.38;2.08;;;;;;;;;;5063353;28;20025;-47
2022/09/03 08:36:07;;;;;;;5.38;2.50;;;;;;;;;;5060500;28;20060;-47
2022/09/03 08:38:35;;;;;;;4.13;2.05;;;;;;;;;;5060149;28;20420;-52
2022/09/03 08:41:17;;;;;;;5.90;2.63;;;;;;;;;;5053447;28;20028;-46
2022/09/03 08:44:20;;;;;;;9.27;2.08;;;;;;;;;;5064094;28;20042;-45
2022/09/03 08:46:52;;;;;;;4.20;2.08;;;;;;;;;;5053236;28;20035;-47
2022/09/03 08:49:50;;;;;;;6.57;2.35;;;;;;;;;;5060824;28;20036;-48
2022/09/03 08:52:32;;;;;;;7.93;2.22;;;;;;;;;;5019428;28;20034;-50
2022/09/03 08:55:27;;;;;;;10.73;2.10;;;;;;;;;;5020863;28;20130;-52
2022/09/03 08:58:02;;;;;;;8.32;2.30;;;;;;;;;;5018110;28;20049;-48
2022/09/03 09:00:49;;;;;;;5.68;2.08;;;;;;;;;;5019642;28;20112;-50
2022/09/03 09:03:32;;;;;;;9.43;2.47;;;;;;;;;;5019548;28;20053;-46
2022/09/03 09:06:19;;;;;;;5.43;2.08;;;;;;;;;;5006334;28;20033;-46
2022/09/03 09:09:19;;;;;;;9.27;2.55;;;;;;;;;;5019291;28;20109;-47
2022/09/03 09:11:50;;;;;;;4.63;1.90;;;;;;;;;;5017359;28;20533;-46
2022/09/03 09:14:38;;;;;;;;;;;;;;;;;;5023036;28;20038;-47
2022/09/03 09:17:23;;;;;;;7.15;2.42;;;;;;;;;;5012811;28;20016;-47
2022/09/03 09:20:10;;;;;;;6.43;2.80;;;;;;;;;;5023371;28;20044;-46
2022/09/03 09:22:54;;;;;;;6.32;2.50;;;;;;;;;;5019334;28;20521;-46
2022/09/03 09:25:22;;;;;;;4.15;2.35;;;;;;;;;;5018259;28;20172;-47
2022/09/03 09:27:58;;;;;;;6.07;2.50;;;;;;;;;;5024267;28;20028;-47
2022/09/03 09:30:24;;;;;;;9.63;2.80;;;;;;;;;;5054229;28;20494;-46
2022/09/03 09:32:50;;;;;;;7.93;2.88;;;;;;;;;;5060788;28;20061;-45
2022/09/03 09:35:17;;;;;;;5.57;2.38;;;;;;;;;;5052308;28;20098;-52
2022/09/03 09:37:55;;;;;;;5.95;2.60;;;;;;;;;;5049465;28;20470;-46
2022/09/03 09:40:25;;;;;;;8.40;2.42;;;;;;;;;;5051458;28;20434;-45
2022/09/03 09:43:01;;;;;;;6.18;2.45;;;;;;;;;;5053554;28;22440;-50
2022/09/03 09:45:27;;;;;;;9.93;3.50;;;;;;;;;;5055699;28;20117;-45
2022/09/03 09:47:55;;;;;;;8.07;2.67;;;;;;;;;;5059534;28;20071;-48
2022/09/03 09:50:21;;;;;;;8.30;2.53;;;;;;;;;;5058520;28;20029;-47
2022/09/03 09:52:47;;;;;;;8.93;2.50;;;;;;;;;;5053630;28;20040;-45
2022/09/03 09:55:18;;;;;;;5.20;2.42;;;;;;;;;;5056040;28;20060;-47
2022/09/03 09:57:44;;;;;;;6.05;2.33;;;;;;;;;;5051136;28;20129;-50
2022/09/03 10:00:16;;;;;;;7.45;2.92;;;;;;;;;;5050257;28;20119;-46
2022/09/03 10:02:55;;;;;;;4.95;2.20;;;;;;;;;;5057562;28;20033;-46
2022/09/03 10:05:23;;;;;;;9.05;2.55;;;;;;;;;;5053975;28;20032;-47
2022/09/03 10:07:58;;;;;;;5.32;2.42;;;;;;;;;;5053003;28;20499;-46
2022/09/03 10:10:25;;;;;;;20.00;3.08;;;;;;;;;;5059606;28;20061;-46
2022/09/03 10:13:08;;;;;;;9.05;2.70;;;;;;;;;;5047033;28;20021;-48
2022/09/03 10:15:49;;;;;;;5.45;2.50;;;;;;;;;;5046774;28;20037;-48
2022/09/03 10:18:42;;;;;;;7.47;2.67;;;;;;;;;;5050793;28;20032;-46
2022/09/03 10:21:23;;;;;;;4.82;2.47;;;;;;;;;;5048616;28;20785;-46
2022/09/03 10:23:58;;;;;;;5.63;2.40;;;;;;;;;;5060617;28;20036;-47
2022/09/03 10:26:29;;;;;;;6.85;2.42;;;;;;;;;;5051449;28;20044;-46
2022/09/03 10:29:00;;;;;;;9.52;3.33;;;;;;;;;;5056206;28;20028;-50
2022/09/03 10:31:38;;;;;;;9.10;2.78;;;;;;;;;;5054896;28;20039;-46
2022/09/03 10:34:22;;;;;;;4.35;2.50;;;;;;;;;;5053025;28;20028;-51
2022/09/03 10:37:24;;;;;;;5.05;2.65;;;;;;;;;;5051379;28;20029;-49
2022/09/03 10:40:30;;;;;;;7.47;2.58;;;;;;;;;;5055332;28;20424;-46
2022/09/03 10:43:10;;;;;;;6.95;2.35;;;;;;;;;;5051221;28;20043;-46
2022/09/03 10:45:58;;;;;;;7.28;2.55;;;;;;;;;;5058581;28;20124;-46
2022/09/03 10:48:58;;;;;;;7.75;2.47;;;;;;;;;;5052341;28;20029;-50
2022/09/03 10:51:28;;;;;;;5.53;2.88;;;;;;;;;;5056386;28;20033;-48
2022/09/03 10:54:16;;;;;;;7.68;2.60;;;;;;;;;;5054462;28;20500;-46
2022/09/03 10:57:00;;;;;;;6.45;2.70;;;;;;;;;;5057360;28;20048;-49
2022/09/03 10:59:58;;;;;;;7.10;2.67;;;;;;;;;;5056331;28;20063;-47
2022/09/03 11:02:48;;;;;;;5.57;2.13;;;;;;;;;;5021077;28;20382;-47
2022/09/03 11:05:53;;;;;;;5.13;2.50;;;;;;;;;;5051862;28;20032;-46
2022/09/03 11:08:28;;;;;;;4.88;2.38;;;;;;;;;;5010531;28;20109;-48
2022/09/03 11:10:59;;;;;;;6.82;2.55;;;;;;;;;;5013611;28;20038;-50
2022/09/03 11:13:34;;;;;;;11.45;3.40;;;;;;;;;;5012403;28;20042;-48
2022/09/03 11:16:11;;;;;;;7.55;2.60;;;;;;;;;;5013882;28;20527;-49
2022/09/03 11:18:48;;;;;;;5.60;2.65;;;;;;;;;;5018073;28;20037;-49
2022/09/03 11:21:17;;;;;;;5.50;2.83;;;;;;;;;;5012794;28;20117;-46
2022/09/03 11:23:45;;;;;;;8.15;2.72;;;;;;;;;;4997059;28;20101;-50
2022/09/03 11:26:15;;;;;;;6.18;2.20;;;;;;;;;;5012465;28;20029;-46
2022/09/03 11:28:54;;;;;;;9.55;2.95;;;;;;;;;;5010713;28;20029;-46
2022/09/03 11:31:38;;;;;;;7.53;2.55;;;;;;;;;;5013786;28;20034;-48
2022/09/03 11:34:15;;;;;;;6.68;2.97;;;;;;;;;;5015979;28;20517;-48
2022/09/03 11:36:41;;;;;;;6.80;2.78;;;;;;;;;;5011819;28;20148;-49
2022/09/03 11:39:20;;;;;;;5.03;2.75;;;;;;;;;;5011571;28;20091;-46
2022/09/03 11:42:05;;;;;;;4.70;2.88;;;;;;;;;;5014895;28;20037;-47
2022/09/03 11:44:40;;;;;;;8.95;2.67;;;;;;;;;;5036726;28;20037;-47
2022/09/03 11:47:15;;;;;;;6.25;2.75;;;;;;;;;;5051464;28;20035;-47
2022/09/03 11:49:49;;;;;;;9.15;2.80;;;;;;;;;;5055239;28;20025;-45
2022/09/03 11:52:26;;;;;;;8.40;4.53;;;;;;;;;;5046542;28;20032;-47
2022/09/03 11:54:51;;;;;;;12.18;3.80;;;;;;;;;;5046928;28;20032;-46
2022/09/03 11:57:27;;;;;;;12.75;2.80;;;;;;;;;;5044121;28;20044;-48
2022/09/03 11:59:53;;;;;;;8.40;3.17;;;;;;;;;;5051662;28;20028;-47
2022/09/03 12:02:32;;;;;;;7.18;2.80;;;;;;;;;;5056952;28;20347;-50
2022/09/03 12:05:19;;;;;;;9.30;3.22;;;;;;;;;;5054703;28;20033;-48
2022/09/03 12:08:09;;;;;;;7.75;2.72;;;;;;;;;;5055172;28;20037;-47
2022/09/03 12:10:47;;;;;;;6.47;2.60;;;;;;;;;;5055158;28;20059;-46
2022/09/03 12:13:27;;;;;;;9.23;2.83;;;;;;;;;;5045643;28;20080;-46
2022/09/03 12:16:11;;;;;;;6.97;2.90;;;;;;;;;;5050256;28;20029;-50
2022/09/03 12:18:40;;;;;;;5.00;2.83;;;;;;;;;;5033181;28;20495;-47
2022/09/03 12:21:08;;;;;;;7.13;2.50;;;;;;;;;;5058537;28;20028;-47
2022/09/03 12:23:44;;;;;;;5.13;2.05;;;;;;;;;;5055808;28;20027;-49
2022/09/03 12:26:15;;;;;;;8.20;2.83;;;;;;;;;;5055951;28;20025;-47
2022/09/03 12:28:44;;;;;;;5.55;2.40;;;;;;;;;;5047401;28;20083;-47
2022/09/03 12:31:20;;;;;;;5.70;2.50;;;;;;;;;;5054156;28;20098;-47
2022/09/03 12:34:10;;;;;;;6.07;2.70;;;;;;;;;;5054176;28;20382;-46
2022/09/03 12:36:43;;;;;;;4.25;2.30;;;;;;;;;;5051627;28;20057;-50
2022/09/03 12:39:19;;;;;;;10.45;2.90;;;;;;;;;;5058588;28;20033;-46
2022/09/03 12:42:00;;;;;;;6.70;2.85;;;;;;;;;;5060482;28;20581;-48
2022/09/03 12:44:28;;;;;;;7.53;3.20;;;;;;;;;;5053153;28;20032;-47
2022/09/03 12:47:23;;;;;;;5.88;3.25;;;;;;;;;;5057697;28;21546;-46
2022/09/03 12:49:51;;;;;;;8.32;3.45;;;;;;;;;;5056532;28;20056;-46
2022/09/03 12:52:28;;;;;;;6.95;2.50;;;;;;;;;;5054975;28;20020;-47
2022/09/03 12:55:14;;;;;;;9.73;3.45;;;;;;;;;;5043696;28;20040;-49
2022/09/03 12:57:47;;;;;;;4.13;2.40;;;;;;;;;;5053926;28;20409;-46
2022/09/03 13:00:15;;;;;;;5.88;2.70;;;;;;;;;;5054977;28;20154;-51
2022/09/03 13:03:00;;;;;;;10.38;3.38;;;;;;;;;;5054539;28;20025;-48
2022/09/03 13:05:35;;;;;;;6.03;3.15;;;;;;;;;;5056833;28;20507;-46
2022/09/03 13:08:05;;;;;;;5.60;3.05;;;;;;;;;;5055260;28;20534;-47
2022/09/03 13:10:36;;;;;;;9.98;3.33;;;;;;;;;;5059468;28;20041;-50
2022/09/03 13:13:22;;;;;;;10.48;3.60;;;;;;;;;;5055163;28;20461;-47
2022/09/03 13:16:33;;;;;;;4.93;2.83;;;;;;;;;;5056215;28;20134;-48
2022/09/03 13:19:27;;;;;;;10.90;2.97;;;;;;;;;;5015578;28;20045;-46
2022/09/03 13:22:20;;;;;;;7.90;2.90;;;;;;;;;;5014929;28;20036;-46
2022/09/03 13:25:02;;;;;;;5.45;2.75;;;;;;;;;;5013950;28;20124;-51
2022/09/03 13:27:27;;;;;;;;;;;;;;;;;;5009944;28;20030;-46
2022/09/03 13:30:18;;;;;;;3.40;2.10;;;;;;;;;;5019928;28;20604;-46
2022/09/03 13:32:55;;;;;;;9.98;2.70;;;;;;;;;;5010344;28;20025;-48
2022/09/03 13:35:35;;;;;;;7.57;3.10;;;;;;;;;;5017848;28;20104;-48
2022/09/03 13:38:22;;;;;;;9.43;2.58;;;;;;;;;;5017830;28;20029;-47
2022/09/03 13:41:06;;;;;;;8.82;2.47;;;;;;;;;;5017693;28;20029;-48
2022/09/03 13:43:45;;;;;;;4.90;2.58;;;;;;;;;;5014796;28;20042;-51
2022/09/03 13:46:19;;;;;;;8.32;2.45;;;;;;;;;;5013739;28;20029;-51
2022/09/03 13:51:54;;;;;;;7.80;2.80;;;;;;;;;;5010874;28;20105;-48
2022/09/03 13:54:41;;;;;;;4.45;2.17;;;;;;;;;;5015657;28;20025;-46
2022/09/03 13:57:58;;;;;;;4.00;2.40;;;;;;;;;;5053702;28;20562;-46
2022/09/03 14:00:34;;;;;;;8.73;2.67;;;;;;;;;;5015117;28;20470;-49
2022/09/03 14:03:29;;;;;;;7.07;2.58;;;;;;;;;;5006896;28;20042;-52
2022/09/03 14:06:06;;;;;;;6.85;2.40;;;;;;;;;;5008042;28;20058;-47
2022/09/03 14:08:58;;;;;;;4.72;2.15;;;;;;;;;;5008740;28;20030;-51
2022/09/03 14:11:39;;;;;;;5.22;2.40;;;;;;;;;;5012843;28;20485;-48
2022/09/03 14:14:23;;;;;;;4.07;2.10;;;;;;;;;;5015392;28;20030;-50
2022/09/03 14:17:22;;;;;;;8.13;2.65;;;;;;;;;;5014541;28;20041;-49
2022/09/03 14:19:56;;;;;;;4.07;2.47;;;;;;;;;;5011898;28;20140;-50
2022/09/03 14:22:59;;;;;;;4.00;2.13;;;;;;;;;;4998494;28;20036;-46
2022/09/03 14:25:26;;;;;;;8.82;2.72;;;;;;;;;;5012497;28;20044;-47
2022/09/03 14:27:53;;;;;;;5.85;2.97;;;;;;;;;;5012502;28;20104;-51
2022/09/03 14:30:31;;;;;;;4.65;2.50;;;;;;;;;;5013813;28;21080;-48
2022/09/03 14:33:11;;;;;;;6.57;2.00;;;;;;;;;;5013013;28;20108;-48
2022/09/03 14:35:49;;;;;;;7.05;2.97;;;;;;;;;;5012747;28;20037;-48
2022/09/03 14:38:25;;;;;;;4.93;2.70;;;;;;;;;;5055638;28;20039;-49
2022/09/03 14:41:03;;;;;;;6.20;2.22;;;;;;;;;;5054717;28;20105;-50
2022/09/03 14:43:53;;;;;;;7.55;2.70;;;;;;;;;;5059494;28;20029;-50
2022/09/03 14:46:47;;;;;;;4.03;2.35;;;;;;;;;;5056323;28;20040;-49
2022/09/03 14:49:31;;;;;;;9.38;2.65;;;;;;;;;;5052529;28;20040;-49
2022/09/03 14:52:06;;;;;;;7.75;2.47;;;;;;;;;;5053659;28;20590;-46
2022/09/03 14:54:43;;;;;;;5.95;2.45;;;;;;;;;;5042126;28;20498;-51
2022/09/03 14:57:30;;;;;;;5.72;2.60;;;;;;;;;;5055515;28;20094;-49
2022/09/03 15:00:11;;;;;;;8.60;2.63;;;;;;;;;;5053396;28;20075;-49
2022/09/03 15:03:17;;;;;;;4.43;2.22;;;;;;;;;;5051219;28;20034;-47
2022/09/03 15:06:01;;;;;;;10.15;2.75;;;;;;;;;;5056350;28;20127;-52
2022/09/03 15:08:42;;;;;;;8.65;2.70;;;;;;;;;;5054244;28;20044;-49
2022/09/03 15:11:18;;;;;;;13.48;2.97;;;;;;;;;;5055324;28;20085;-48
2022/09/03 15:13:53;;;;;;;6.40;2.53;;;;;;;;;;5059046;28;20035;-48
2022/09/03 15:16:21;;;;;;;14.82;4.00;;;;;;;;;;5058404;28;20039;-53
2022/09/03 15:19:08;;;;;;;7.32;2.88;;;;;;;;;;5040324;28;20078;-50
2022/09/03 15:21:47;;;;;;;12.90;3.05;;;;;;;;;;5055351;28;20036;-48
2022/09/03 15:24:33;;;;;;;15.13;2.85;;;;;;;;;;5058720;28;20032;-49
2022/09/03 15:27:36;;;;;;;8.30;3.03;;;;;;;;;;5058034;28;20036;-48
2022/09/03 15:30:17;;;;;;;7.63;2.90;;;;;;;;;;5054019;28;20036;-46
2022/09/03 15:32:52;;;;;;;9.27;3.20;;;;;;;;;;5049364;28;20028;-47